Time;durP1;ratioP1;P1;durP2;ratioP2;P2;SDS_P1;SDS_P2;PMS_P1;PMS_P2;Temp;Humidity;BMP_temperature;BMP_pressure;BME280_temperature;BME280_humidity;BME280_pressure;Samples;Min_cycle;Max_cycle;Signal;HPM_P1;HPM_P2
2023/03/13 00:01:10;;;;;;;8.70;2.35;;;;;15.70;99980.00;;;;5043729;28;20251;-77
2023/03/13 00:03:38;;;;;;;6.95;2.03;;;;;15.70;99980.00;;;;5045675;28;20676;-77
2023/03/13 00:06:06;;;;;;;8.63;2.05;;;;;15.70;99968.00;;;;5042301;28;20200;-77
2023/03/13 00:08:35;;;;;;;8.00;1.83;;;;;15.70;99959.00;;;;5048937;28;20239;-77
2023/03/13 00:11:04;;;;;;;9.93;2.30;;;;;15.60;99962.00;;;;5047493;28;20207;-76
2023/03/13 00:13:31;;;;;;;7.32;1.83;;;;;15.70;99946.00;;;;5049888;28;20206;-76
2023/03/13 00:16:02;;;;;;;8.95;2.35;;;;;15.60;99945.00;;;;5047450;28;20198;-77
2023/03/13 00:18:30;;;;;;;7.93;2.53;;;;;15.70;99949.00;;;;5051123;28;20219;-77
2023/03/13 00:21:02;;;;;;;11.98;2.70;;;;;15.60;99943.00;;;;5034739;28;20231;-77
2023/03/13 00:23:30;;;;;;;14.32;2.80;;;;;15.60;99940.00;;;;5049225;28;20219;-76
2023/03/13 00:25:58;;;;;;;11.80;2.40;;;;;15.60;99933.00;;;;5049874;28;20227;-76
2023/03/13 00:28:27;;;;;;;9.23;2.92;;;;;15.60;99925.00;;;;5050365;28;20211;-77
2023/03/13 00:31:01;;;;;;;4.85;2.10;;;;;15.50;99918.00;;;;5047356;28;20207;-77
2023/03/13 00:33:29;;;;;;;5.47;1.90;;;;;15.60;99910.00;;;;5048777;28;20676;-77
2023/03/13 00:36:00;;;;;;;7.68;1.90;;;;;15.60;99905.00;;;;5049222;28;20208;-77
2023/03/13 00:38:29;;;;;;;7.93;2.03;;;;;15.60;99897.00;;;;5044028;28;20197;-78
2023/03/13 00:41:00;;;;;;;14.60;2.40;;;;;15.60;99887.00;;;;5046720;28;20292;-78
2023/03/13 00:43:27;;;;;;;7.00;1.90;;;;;15.60;99877.00;;;;5048599;28;20732;-78
2023/03/13 00:45:55;;;;;;;6.45;1.85;;;;;15.60;99863.00;;;;5048138;28;20206;-78
2023/03/13 00:48:22;;;;;;;8.68;2.38;;;;;15.60;99858.00;;;;5049941;28;20216;-78
2023/03/13 00:50:50;;;;;;;6.82;1.70;;;;;15.60;99861.00;;;;5048901;28;20564;-78
2023/03/13 00:53:20;;;;;;;6.25;1.85;;;;;15.50;99852.00;;;;5051122;28;20207;-78
2023/03/13 00:55:55;;;;;;;4.55;1.77;;;;;15.50;99847.00;;;;5040803;28;20582;-78
2023/03/13 00:58:23;;;;;;;5.97;2.20;;;;;15.60;99838.00;;;;5043639;28;20195;-79
2023/03/13 01:00:50;;;;;;;8.43;2.13;;;;;15.50;99836.00;;;;5048251;28;20228;-78
2023/03/13 01:03:18;;;;;;;7.18;1.98;;;;;15.50;99820.00;;;;5047648;28;20201;-78
2023/03/13 01:05:46;;;;;;;5.22;1.58;;;;;15.50;99819.00;;;;5049506;28;20685;-78
2023/03/13 01:08:13;;;;;;;7.05;1.92;;;;;15.50;99811.00;;;;5049185;28;20223;-78
2023/03/13 01:10:41;;;;;;;5.82;1.40;;;;;15.50;99797.00;;;;5048114;28;20203;-79
2023/03/13 01:13:09;;;;;;;8.70;2.15;;;;;15.50;99800.00;;;;5039735;28;20211;-79
2023/03/13 01:15:36;;;;;;;8.23;2.03;;;;;15.50;99787.00;;;;5046447;28;20196;-79
2023/03/13 01:18:05;;;;;;;7.15;1.80;;;;;15.50;99792.00;;;;5045808;28;21077;-78
2023/03/13 01:20:32;;;;;;;4.90;1.58;;;;;15.50;99779.00;;;;5049777;28;20219;-78
2023/03/13 01:22:59;;;;;;;7.90;2.13;;;;;15.50;99776.00;;;;5041335;28;20199;-80
2023/03/13 01:25:27;;;;;;;4.85;1.63;;;;;15.50;99775.00;;;;5042055;28;20226;-79
2023/03/13 01:27:55;;;;;;;5.47;1.90;;;;;15.50;99764.00;;;;5045658;28;20214;-79
2023/03/13 01:30:23;;;;;;;4.57;1.25;;;;;15.50;99757.00;;;;5041476;28;20191;-79
2023/03/13 01:32:50;;;;;;;6.80;2.13;;;;;15.50;99754.00;;;;5045284;28;20202;-80
2023/03/13 01:35:18;;;;;;;4.82;1.67;;;;;15.50;99744.00;;;;5047986;28;20208;-80
2023/03/13 01:37:45;;;;;;;5.57;1.17;;;;;15.50;99745.00;;;;5048301;28;20199;-80
2023/03/13 01:40:13;;;;;;;4.20;1.25;;;;;15.50;99725.00;;;;5048668;28;20227;-80
2023/03/13 01:42:51;;;;;;;4.97;1.42;;;;;15.50;99727.00;;;;5048582;28;20207;-79
2023/03/13 01:45:53;;;;;;;4.32;1.45;;;;;15.40;99714.00;;;;5046838;28;20657;-80
2023/03/13 01:48:22;;;;;;;3.13;1.10;;;;;15.50;99708.00;;;;5047140;28;20688;-80
2023/03/13 01:50:49;;;;;;;7.35;1.88;;;;;15.60;99709.00;;;;5048896;28;20200;-80
2023/03/13 01:53:16;;;;;;;4.60;1.30;;;;;15.60;99708.00;;;;5045813;28;20195;-80
2023/03/13 01:55:44;;;;;;;5.70;2.03;;;;;15.60;99699.00;;;;5049046;28;20200;-80
2023/03/13 01:58:11;;;;;;;4.82;1.65;;;;;15.60;99692.00;;;;5047510;28;20199;-80
2023/03/13 02:00:41;;;;;;;4.57;1.42;;;;;15.70;99690.00;;;;5048318;28;20238;-80
2023/03/13 02:03:14;;;;;;;3.42;1.55;;;;;15.70;99682.00;;;;5044184;28;20210;-79
2023/03/13 02:05:42;;;;;;;3.00;1.10;;;;;15.70;99680.00;;;;5048940;28;20568;-80
2023/03/13 02:08:14;;;;;;;4.82;1.58;;;;;15.70;99671.00;;;;5045918;28;20603;-80
2023/03/13 02:10:50;;;;;;;4.32;1.45;;;;;15.70;99659.00;;;;5046071;28;20204;-79
2023/03/13 02:13:19;;;;;;;4.20;1.77;;;;;15.80;99647.00;;;;5047883;28;20210;-80
2023/03/13 02:15:47;;;;;;;4.82;1.73;;;;;15.80;99644.00;;;;5048589;28;20203;-79
2023/03/13 02:18:16;;;;;;;2.80;1.63;;;;;15.80;99632.00;;;;5046666;28;20241;-80
2023/03/13 02:20:44;;;;;;;3.17;1.42;;;;;15.80;99628.00;;;;5039561;28;20239;-79
2023/03/13 02:23:19;;;;;;;2.30;1.35;;;;;15.80;99612.00;;;;5047893;28;20203;-79
2023/03/13 02:25:49;;;;;;;3.85;1.77;;;;;15.90;99605.00;;;;5051537;28;20215;-80
2023/03/13 02:28:19;;;;;;;5.68;2.40;;;;;15.90;99607.00;;;;5054502;28;20944;-80
2023/03/13 02:30:49;;;;;;;5.38;1.70;;;;;15.90;99596.00;;;;5054486;28;20195;-80
2023/03/13 02:33:18;;;;;;;5.13;1.80;;;;;16.00;99597.00;;;;5053511;28;20200;-80
2023/03/13 02:35:47;;;;;;;3.97;1.80;;;;;16.00;99597.00;;;;5054361;28;20195;-78
2023/03/13 02:38:18;;;;;;;4.00;2.17;;;;;16.00;99596.00;;;;5053518;28;20199;-79
2023/03/13 02:40:49;;;;;;;3.03;1.98;;;;;16.00;99594.00;;;;5053210;28;20227;-79
2023/03/13 02:43:20;;;;;;;3.85;2.20;;;;;16.00;99586.00;;;;5051941;28;20200;-79
2023/03/13 02:46:02;;;;;;;3.65;2.33;;;;;16.00;99587.00;;;;5034438;28;20200;-79
2023/03/13 02:48:33;;;;;;;4.90;2.50;;;;;16.10;99578.00;;;;5041426;28;20199;-80
2023/03/13 02:51:02;;;;;;;7.70;2.72;;;;;16.10;99587.00;;;;5053964;28;20228;-79
2023/03/13 02:53:29;;;;;;;4.95;2.45;;;;;16.20;99575.00;;;;5047947;28;20203;-80
2023/03/13 02:55:58;;;;;;;3.00;2.25;;;;;16.20;99572.00;;;;5039218;28;20207;-80
2023/03/13 02:58:25;;;;;;;4.00;2.30;;;;;16.20;99583.00;;;;5040132;28;20208;-80
2023/03/13 03:00:53;;;;;;;3.85;2.50;;;;;16.30;99580.00;;;;5053545;28;20604;-79
2023/03/13 03:03:20;;;;;;;4.15;2.33;;;;;16.30;99591.00;;;;5053697;28;20203;-80
2023/03/13 03:05:48;;;;;;;3.33;2.35;;;;;16.40;99587.00;;;;5052734;28;20207;-80
2023/03/13 03:08:15;;;;;;;4.85;2.88;;;;;16.40;99583.00;;;;5052675;28;20227;-77
2023/03/13 03:10:42;;;;;;;5.40;2.47;;;;;16.40;99588.00;;;;5054523;28;20204;-76
2023/03/13 03:13:11;;;;;;;4.13;2.70;;;;;16.40;99580.00;;;;5034503;28;20201;-76
2023/03/13 03:15:38;;;;;;;5.65;3.17;;;;;16.50;99576.00;;;;5053223;28;20207;-76
2023/03/13 03:18:05;;;;;;;3.05;2.72;;;;;16.50;99585.00;;;;5050754;28;20196;-76
2023/03/13 03:20:32;;;;;;;7.25;3.20;;;;;16.50;99577.00;;;;5052939;28;20219;-77
2023/03/13 03:23:00;;;;;;;4.70;3.30;;;;;16.60;99580.00;;;;5052733;28;20283;-76
2023/03/13 03:25:27;;;;;;;3.95;3.00;;;;;16.60;99575.00;;;;5052911;28;20242;-77
2023/03/13 03:27:54;;;;;;;3.22;2.83;;;;;16.60;99577.00;;;;5052658;28;20203;-76
2023/03/13 03:30:23;;;;;;;3.90;3.38;;;;;16.60;99572.00;;;;5044095;28;20196;-77
2023/03/13 03:32:50;;;;;;;3.35;3.03;;;;;16.70;99570.00;;;;5050703;28;20203;-77
2023/03/13 03:35:18;;;;;;;4.43;2.80;;;;;16.70;99567.00;;;;5049509;28;20207;-76
2023/03/13 03:37:45;;;;;;;3.50;2.88;;;;;16.80;99567.00;;;;5050293;28;20670;-76
2023/03/13 03:40:13;;;;;;;3.53;2.67;;;;;16.80;99563.00;;;;5049864;28;21081;-76
2023/03/13 03:42:40;;;;;;;3.00;2.58;;;;;16.80;99561.00;;;;5050422;28;20210;-76
2023/03/13 03:45:09;;;;;;;3.55;2.78;;;;;16.90;99549.00;;;;5046444;28;20206;-77
2023/03/13 03:47:37;;;;;;;3.97;2.85;;;;;16.90;99554.00;;;;5043273;28;20195;-78
2023/03/13 03:50:06;;;;;;;4.82;3.35;;;;;16.90;99556.00;;;;5048816;28;20207;-78
2023/03/13 03:52:33;;;;;;;7.10;3.30;;;;;16.90;99542.00;;;;5049796;28;20204;-77
2023/03/13 03:55:01;;;;;;;3.38;2.72;;;;;17.00;99544.00;;;;5036160;28;20196;-77
2023/03/13 03:57:28;;;;;;;4.05;2.63;;;;;17.00;99539.00;;;;5038822;28;20214;-78
2023/03/13 03:59:55;;;;;;;3.35;2.45;;;;;17.00;99547.00;;;;5044733;28;20579;-77
2023/03/13 04:02:23;;;;;;;4.40;2.42;;;;;17.10;99541.00;;;;5044920;28;20697;-77
2023/03/13 04:04:51;;;;;;;2.97;2.50;;;;;17.10;99527.00;;;;5049557;28;20210;-77
2023/03/13 04:07:19;;;;;;;2.88;2.42;;;;;17.10;99532.00;;;;5050729;28;20338;-78
2023/03/13 04:09:46;;;;;;;4.35;2.00;;;;;17.20;99541.00;;;;5049110;28;20211;-77
2023/03/13 04:12:13;;;;;;;2.08;1.85;;;;;17.20;99531.00;;;;5050570;28;20203;-77
2023/03/13 04:14:40;;;;;;;4.38;2.25;;;;;17.20;99531.00;;;;5049993;28;20199;-78
2023/03/13 04:17:08;;;;;;;4.32;2.38;;;;;17.20;99533.00;;;;5047701;28;20206;-77
2023/03/13 04:19:35;;;;;;;3.38;2.47;;;;;17.30;99521.00;;;;5046180;28;20196;-77
2023/03/13 04:22:04;;;;;;;2.58;2.33;;;;;17.20;99528.00;;;;5047384;28;20238;-77
2023/03/13 04:24:31;;;;;;;2.85;2.08;;;;;17.30;99520.00;;;;5038052;28;20200;-78
2023/03/13 04:27:00;;;;;;;3.78;2.50;;;;;17.30;99513.00;;;;5039032;28;20198;-77
2023/03/13 04:29:27;;;;;;;3.67;2.17;;;;;17.30;99515.00;;;;5042808;28;20195;-77
2023/03/13 04:31:55;;;;;;;9.60;2.60;;;;;17.40;99504.00;;;;5046718;28;20203;-77
2023/03/13 04:34:22;;;;;;;2.22;2.03;;;;;17.40;99505.00;;;;5049071;28;20207;-77
2023/03/13 04:36:50;;;;;;;2.38;2.17;;;;;17.40;99505.00;;;;5046749;28;20206;-78
2023/03/13 04:39:18;;;;;;;4.90;2.65;;;;;17.40;99494.00;;;;5050254;28;20203;-76
2023/03/13 04:41:46;;;;;;;2.85;2.45;;;;;17.50;99486.00;;;;5049580;28;20226;-77
2023/03/13 04:44:13;;;;;;;3.63;2.55;;;;;17.50;99491.00;;;;5037749;28;20207;-76
2023/03/13 04:46:40;;;;;;;2.95;2.30;;;;;17.50;99485.00;;;;5045312;28;20203;-77
2023/03/13 04:49:08;;;;;;;4.43;2.10;;;;;17.50;99470.00;;;;5045916;28;20222;-77
2023/03/13 04:51:35;;;;;;;4.95;2.20;;;;;17.50;99480.00;;;;5045844;28;20211;-77
2023/03/13 04:54:02;;;;;;;2.58;1.83;;;;;17.50;99483.00;;;;5035532;28;21108;-77
2023/03/13 04:56:31;;;;;;;4.72;2.53;;;;;17.60;99470.00;;;;5034151;28;20200;-77
2023/03/13 04:58:58;;;;;;;3.30;2.03;;;;;17.60;99474.00;;;;5032326;28;20476;-78
2023/03/13 05:01:26;;;;;;;3.78;1.83;;;;;17.60;99473.00;;;;5044409;28;20234;-77
2023/03/13 05:03:53;;;;;;;5.40;2.20;;;;;17.60;99469.00;;;;5047064;28;20203;-77
2023/03/13 05:06:20;;;;;;;4.07;2.08;;;;;17.60;99481.00;;;;5043193;28;20198;-78
2023/03/13 05:08:49;;;;;;;5.50;1.83;;;;;17.60;99486.00;;;;5038907;28;20212;-77
2023/03/13 05:11:16;;;;;;;4.30;2.53;;;;;17.70;99468.00;;;;5036471;28;20204;-77
2023/03/13 05:13:45;;;;;;;3.65;2.13;;;;;17.70;99471.00;;;;5030400;28;20212;-76
2023/03/13 05:16:12;;;;;;;2.15;1.40;;;;;17.70;99468.00;;;;5045931;28;20200;-77
2023/03/13 05:18:39;;;;;;;3.72;1.70;;;;;17.70;99468.00;;;;5049446;28;20246;-77
2023/03/13 05:21:07;;;;;;;3.45;1.73;;;;;17.70;99471.00;;;;5049102;28;20215;-77
2023/03/13 05:23:35;;;;;;;3.10;2.03;;;;;17.80;99468.00;;;;5047094;28;20199;-76
2023/03/13 05:26:02;;;;;;;4.65;2.30;;;;;17.80;99460.00;;;;5028853;28;20231;-76
2023/03/13 05:28:29;;;;;;;3.03;1.90;;;;;17.80;99473.00;;;;5043447;28;20199;-77
2023/03/13 05:30:58;;;;;;;3.60;2.08;;;;;17.80;99466.00;;;;5046183;28;20203;-76
2023/03/13 05:33:26;;;;;;;3.55;1.98;;;;;17.80;99470.00;;;;5042053;28;20200;-77
2023/03/13 05:35:53;;;;;;;4.75;2.22;;;;;17.90;99469.00;;;;5048197;28;20215;-77
2023/03/13 05:38:20;;;;;;;4.72;1.77;;;;;17.90;99465.00;;;;5043148;28;20650;-76
2023/03/13 05:40:47;;;;;;;2.63;1.95;;;;;17.90;99480.00;;;;5039263;28;20196;-77
2023/03/13 05:43:15;;;;;;;5.43;2.05;;;;;17.90;99467.00;;;;5040207;28;20202;-78
2023/03/13 05:45:42;;;;;;;3.63;1.60;;;;;17.90;99464.00;;;;5041611;28;20199;-79
2023/03/13 05:48:11;;;;;;;4.85;2.10;;;;;17.90;99472.00;;;;5036714;28;20207;-77
2023/03/13 05:50:38;;;;;;;3.60;1.70;;;;;17.90;99464.00;;;;5043585;28;20199;-78
2023/03/13 05:53:06;;;;;;;5.35;2.35;;;;;17.90;99454.00;;;;5046160;28;20238;-77
2023/03/13 05:55:33;;;;;;;2.38;1.60;;;;;17.90;99458.00;;;;5048571;28;20278;-76
2023/03/13 05:58:00;;;;;;;4.53;1.90;;;;;18.00;99448.00;;;;5045686;28;20195;-76
2023/03/13 06:00:28;;;;;;;2.65;1.42;;;;;18.00;99448.00;;;;5043540;28;20203;-78
2023/03/13 06:02:55;;;;;;;4.45;1.80;;;;;18.00;99446.00;;;;5038795;28;20225;-77
2023/03/13 06:05:24;;;;;;;5.05;1.98;;;;;18.00;99442.00;;;;5047647;28;20195;-77
2023/03/13 06:07:51;;;;;;;2.85;1.75;;;;;18.00;99450.00;;;;5042912;28;20227;-76
2023/03/13 06:10:19;;;;;;;4.38;1.77;;;;;18.00;99427.00;;;;5043702;28;20554;-76
2023/03/13 06:12:53;;;;;;;4.72;1.85;;;;;18.00;99439.00;;;;5035329;28;20681;-77
2023/03/13 06:15:20;;;;;;;3.25;1.77;;;;;18.10;99425.00;;;;5047240;28;20203;-77
2023/03/13 06:17:48;;;;;;;3.05;2.28;;;;;18.10;99432.00;;;;5045492;28;20199;-76
2023/03/13 06:20:16;;;;;;;4.28;1.90;;;;;18.10;99449.00;;;;5048525;28;20200;-76
2023/03/13 06:22:45;;;;;;;5.15;2.13;;;;;18.10;99420.00;;;;5047687;28;20610;-77
2023/03/13 06:25:12;;;;;;;4.35;1.50;;;;;18.10;99424.00;;;;5046237;28;20608;-76
2023/03/13 06:27:40;;;;;;;5.75;2.03;;;;;18.10;99427.00;;;;5046926;28;20195;-78
2023/03/13 06:30:10;;;;;;;3.97;1.67;;;;;18.10;99433.00;;;;5046598;28;20192;-77
2023/03/13 06:32:38;;;;;;;5.10;1.73;;;;;18.20;99421.00;;;;5048489;28;20207;-76
2023/03/13 06:35:06;;;;;;;4.43;1.55;;;;;18.20;99425.00;;;;5046343;28;20211;-77
2023/03/13 06:37:33;;;;;;;5.40;2.00;;;;;18.20;99426.00;;;;5044398;28;20206;-78
2023/03/13 06:40:04;;;;;;;5.78;1.88;;;;;18.20;99423.00;;;;5046618;28;20195;-78
2023/03/13 06:42:31;;;;;;;3.97;1.75;;;;;18.20;99415.00;;;;5041711;28;20231;-77
2023/03/13 06:44:59;;;;;;;3.00;1.38;;;;;18.20;99419.00;;;;5047650;28;20200;-78
2023/03/13 06:47:26;;;;;;;3.53;1.52;;;;;18.20;99435.00;;;;5048424;28;20207;-78
2023/03/13 06:49:53;;;;;;;4.38;1.75;;;;;18.30;99427.00;;;;5048092;28;20192;-78
2023/03/13 06:52:20;;;;;;;4.75;1.45;;;;;18.30;99432.00;;;;5038472;28;20191;-77
2023/03/13 06:54:48;;;;;;;6.60;1.70;;;;;18.30;99437.00;;;;5045966;28;20200;-74
2023/03/13 06:57:16;;;;;;;2.63;1.48;;;;;18.30;99436.00;;;;5034009;28;20184;-75
2023/03/13 06:59:44;;;;;;;3.08;1.70;;;;;18.40;99437.00;;;;5044758;28;20646;-74
2023/03/13 07:02:12;;;;;;;2.67;1.38;;;;;18.40;99430.00;;;;5043679;28;20226;-74
2023/03/13 07:04:39;;;;;;;3.95;1.50;;;;;18.40;99420.00;;;;5042401;28;20201;-73
2023/03/13 07:07:06;;;;;;;3.55;1.40;;;;;18.40;99432.00;;;;5042901;28;20227;-74
2023/03/13 07:09:34;;;;;;;4.82;1.88;;;;;18.40;99424.00;;;;5048342;28;20204;-74
2023/03/13 07:12:02;;;;;;;5.38;1.67;;;;;18.40;99431.00;;;;5048783;28;20199;-76
2023/03/13 07:14:30;;;;;;;4.05;1.25;;;;;18.40;99444.00;;;;5031090;28;20205;-74
2023/03/13 07:16:59;;;;;;;4.65;2.75;;;;;18.40;99438.00;;;;5037191;28;20212;-73
2023/03/13 07:19:27;;;;;;;2.08;1.63;;;;;18.40;99440.00;;;;5045794;28;20214;-73
2023/03/13 07:21:55;;;;;;;2.95;1.13;;;;;18.50;99426.00;;;;5050814;28;20277;-74
2023/03/13 07:24:23;;;;;;;6.80;1.88;;;;;18.50;99454.00;;;;5049515;28;20275;-74
2023/03/13 07:26:50;;;;;;;2.20;1.30;;;;;18.50;99448.00;;;;5047978;28;20226;-74
2023/03/13 07:29:17;;;;;;;3.20;1.48;;;;;18.40;99437.00;;;;5046782;28;20195;-74
2023/03/13 07:31:46;;;;;;;4.68;1.92;;;;;18.40;99454.00;;;;5049531;28;20200;-74
2023/03/13 07:34:13;;;;;;;4.53;1.35;;;;;18.40;99451.00;;;;5051261;28;20218;-74
2023/03/13 07:36:41;;;;;;;3.42;1.50;;;;;18.40;99437.00;;;;5050174;28;20214;-74
2023/03/13 07:39:08;;;;;;;6.75;1.55;;;;;18.40;99443.00;;;;5047870;28;20207;-74
2023/03/13 07:41:36;;;;;;;6.47;1.85;;;;;18.40;99444.00;;;;5037963;28;20200;-75
2023/03/13 07:44:03;;;;;;;2.47;1.65;;;;;18.40;99452.00;;;;5040396;28;20729;-74
2023/03/13 07:46:31;;;;;;;3.42;1.70;;;;;18.40;99445.00;;;;5049879;28;20195;-74
2023/03/13 07:48:59;;;;;;;3.15;1.50;;;;;18.30;99446.00;;;;5045215;28;20207;-74
2023/03/13 07:51:27;;;;;;;5.18;1.58;;;;;18.30;99450.00;;;;5048702;28;21184;-74
2023/03/13 07:53:55;;;;;;;3.17;1.88;;;;;18.30;99455.00;;;;5049769;28;20207;-75
2023/03/13 07:56:23;;;;;;;7.63;1.88;;;;;18.30;99444.00;;;;5063273;28;20199;-75
2023/03/13 07:58:51;;;;;;;3.42;1.40;;;;;18.30;99453.00;;;;5062219;28;20202;-75
2023/03/13 08:01:20;;;;;;;4.00;1.45;;;;;18.30;99453.00;;;;5048019;28;20192;-75
2023/03/13 08:03:49;;;;;;;5.05;1.30;;;;;18.30;99452.00;;;;5051944;28;20230;-75
2023/03/13 08:06:20;;;;;;;3.58;1.27;;;;;18.30;99448.00;;;;5038262;28;20208;-75
2023/03/13 08:08:47;;;;;;;3.13;1.20;;;;;18.30;99440.00;;;;5044750;28;20672;-75
2023/03/13 08:11:17;;;;;;;2.30;1.40;;;;;18.30;99442.00;;;;5046471;28;20203;-75
2023/03/13 08:13:45;;;;;;;2.03;1.15;;;;;18.30;99442.00;;;;5059791;28;20199;-76
2023/03/13 08:16:14;;;;;;;3.58;1.83;;;;;18.30;99445.00;;;;5053507;28;20191;-75
2023/03/13 08:18:44;;;;;;;5.28;1.85;;;;;18.30;99436.00;;;;5061184;28;20203;-75
2023/03/13 08:21:13;;;;;;;3.35;1.77;;;;;18.30;99443.00;;;;5055643;28;20566;-75
2023/03/13 08:23:43;;;;;;;3.60;1.80;;;;;18.30;99435.00;;;;5060534;28;20303;-76
2023/03/13 08:26:12;;;;;;;4.47;1.13;;;;;18.30;99417.00;;;;5069055;28;20218;-75
2023/03/13 08:28:40;;;;;;;3.72;1.30;;;;;18.40;99418.00;;;;5069747;28;20203;-75
2023/03/13 08:31:09;;;;;;;2.85;1.23;;;;;18.40;99436.00;;;;5063129;28;22022;-76
2023/03/13 08:33:37;;;;;;;2.38;1.40;;;;;18.40;99422.00;;;;5054018;28;20206;-76
2023/03/13 08:36:12;;;;;;;1.77;1.20;;;;;18.30;99420.00;;;;5045911;28;20293;-75
2023/03/13 08:38:41;;;;;;;5.82;1.77;;;;;18.40;99412.00;;;;5046351;28;20717;-75
2023/03/13 08:41:09;;;;;;;4.50;1.17;;;;;18.40;99409.00;;;;5050719;28;20199;-76
2023/03/13 08:43:37;;;;;;;1.88;0.80;;;;;18.40;99416.00;;;;5052695;28;20228;-75
2023/03/13 08:46:04;;;;;;;3.38;0.93;;;;;18.50;99402.00;;;;5041095;28;20310;-76
2023/03/13 08:48:32;;;;;;;1.60;1.15;;;;;18.50;99392.00;;;;5055570;28;20225;-76
2023/03/13 08:51:02;;;;;;;2.50;1.17;;;;;18.50;99395.00;;;;5058363;28;20211;-76
2023/03/13 08:53:30;;;;;;;3.40;1.17;;;;;18.60;99387.00;;;;5065973;28;20231;-75
2023/03/13 08:55:57;;;;;;;2.50;1.25;;;;;18.60;99379.00;;;;5055248;28;20195;-76
2023/03/13 08:58:26;;;;;;;5.50;1.50;;;;;18.60;99378.00;;;;5055800;28;20190;-76
2023/03/13 09:00:54;;;;;;;4.30;1.65;;;;;18.70;99379.00;;;;5059073;28;20207;-76
2023/03/13 09:03:21;;;;;;;1.80;1.27;;;;;18.70;99386.00;;;;5050047;28;20222;-76
2023/03/13 09:05:49;;;;;;;2.15;1.38;;;;;18.70;99389.00;;;;5060507;28;20687;-76
2023/03/13 09:08:16;;;;;;;4.75;1.23;;;;;18.80;99388.00;;;;5060547;28;20228;-76
2023/03/13 09:10:43;;;;;;;2.80;1.30;;;;;18.80;99376.00;;;;5054510;28;20195;-76
2023/03/13 09:13:10;;;;;;;3.40;1.33;;;;;18.80;99403.00;;;;5049615;28;20203;-76
2023/03/13 09:15:39;;;;;;;2.17;1.00;;;;;18.80;99385.00;;;;5060927;28;20657;-76
2023/03/13 09:18:07;;;;;;;4.22;1.17;;;;;18.90;99392.00;;;;5048453;28;20676;-76
2023/03/13 09:20:34;;;;;;;4.47;1.20;;;;;18.90;99349.00;;;;5059713;28;20688;-76
2023/03/13 09:23:02;;;;;;;3.22;0.90;;;;;18.90;99367.00;;;;5060604;28;20234;-76
2023/03/13 09:25:29;;;;;;;2.15;1.25;;;;;19.00;99340.00;;;;5047517;28;20223;-76
2023/03/13 09:27:56;;;;;;;2.88;1.10;;;;;19.10;99348.00;;;;5047905;28;20192;-75
2023/03/13 09:30:24;;;;;;;3.17;1.10;;;;;19.20;99335.00;;;;5053576;28;20195;-75
2023/03/13 09:32:53;;;;;;;5.55;0.95;;;;;19.20;99349.00;;;;5046318;28;20191;-76
2023/03/13 09:35:20;;;;;;;3.70;0.90;;;;;19.40;99341.00;;;;5046630;28;20188;-76
2023/03/13 09:37:48;;;;;;;3.17;0.95;;;;;19.50;99340.00;;;;5055520;28;20211;-75
2023/03/13 09:40:17;;;;;;;1.95;0.73;;;;;19.50;99347.00;;;;5053840;28;20298;-76
2023/03/13 09:42:48;;;;;;;2.83;1.23;;;;;19.60;99341.00;;;;5058246;28;20227;-76
2023/03/13 09:45:22;;;;;;;3.03;1.05;;;;;19.70;99341.00;;;;5044321;28;20199;-77
2023/03/13 09:47:54;;;;;;;2.47;0.60;;;;;19.80;99344.00;;;;5044562;28;20215;-76
2023/03/13 09:50:27;;;;;;;4.25;0.70;;;;;19.80;99333.00;;;;5068253;28;20194;-76
2023/03/13 09:53:00;;;;;;;1.63;0.70;;;;;20.00;99328.00;;;;5057072;28;20199;-77
2023/03/13 09:55:31;;;;;;;2.33;0.90;;;;;20.00;99328.00;;;;5044469;28;20204;-77
2023/03/13 09:58:04;;;;;;;3.65;0.90;;;;;20.10;99325.00;;;;5056463;28;20544;-76
2023/03/13 10:00:36;;;;;;;2.45;0.80;;;;;20.10;99323.00;;;;5051082;28;20210;-77
2023/03/13 10:03:13;;;;;;;4.70;0.90;;;;;20.10;99309.00;;;;5043244;28;20226;-76
2023/03/13 10:05:46;;;;;;;3.40;1.02;;;;;20.20;99307.00;;;;5038586;28;20790;-76
2023/03/13 10:08:17;;;;;;;1.25;0.70;;;;;20.30;99308.00;;;;5034140;28;20235;-76
2023/03/13 10:10:48;;;;;;;2.42;0.80;;;;;20.40;99335.00;;;;5068465;28;20202;-76
2023/03/13 10:13:22;;;;;;;3.70;1.15;;;;;20.40;99304.00;;;;5041302;28;20591;-76
2023/03/13 10:15:53;;;;;;;2.72;0.90;;;;;20.50;99295.00;;;;5035637;28;20204;-76
2023/03/13 10:18:24;;;;;;;2.72;0.90;;;;;20.60;99291.00;;;;5037072;28;20211;-76
2023/03/13 10:20:54;;;;;;;2.28;0.98;;;;;20.70;99282.00;;;;5036541;28;20195;-77
2023/03/13 10:23:27;;;;;;;2.50;0.70;;;;;20.70;99279.00;;;;5047427;28;20227;-76
2023/03/13 10:25:54;;;;;;;1.95;1.20;;;;;20.80;99289.00;;;;5046049;28;20215;-76
2023/03/13 10:28:22;;;;;;;1.52;0.65;;;;;20.80;99288.00;;;;5044340;28;20202;-77
2023/03/13 10:30:53;;;;;;;2.38;1.10;;;;;20.90;99287.00;;;;5034007;28;20196;-76
2023/03/13 10:33:24;;;;;;;3.00;1.10;;;;;20.90;99294.00;;;;5045994;28;20234;-76
2023/03/13 10:36:04;;;;;;;2.63;0.90;;;;;20.90;99262.00;;;;5045451;28;20198;-76
2023/03/13 10:38:35;;;;;;;4.65;1.48;;;;;21.00;99275.00;;;;5045821;28;20192;-77
2023/03/13 10:41:17;;;;;;;2.25;0.80;;;;;21.00;99273.00;;;;5042724;28;20211;-77
2023/03/13 10:43:52;;;;;;;2.03;0.82;;;;;21.00;99283.00;;;;5046463;28;20215;-77
2023/03/13 10:46:26;;;;;;;3.83;0.90;;;;;21.10;99280.00;;;;5046828;28;20340;-77
2023/03/13 10:48:56;;;;;;;1.15;0.60;;;;;21.20;99275.00;;;;5050131;28;20204;-76
2023/03/13 10:51:25;;;;;;;2.53;1.13;;;;;21.30;99273.00;;;;5046207;28;20675;-76
2023/03/13 10:53:52;;;;;;;1.00;0.60;;;;;21.40;99265.00;;;;5050683;28;20199;-77
2023/03/13 10:56:31;;;;;;;2.28;0.70;;;;;21.40;99236.00;;;;5049487;28;20202;-76
2023/03/13 10:58:59;;;;;;;2.33;0.90;;;;;21.50;99272.00;;;;5049822;28;20196;-76
2023/03/13 11:01:30;;;;;;;4.47;0.70;;;;;21.50;99271.00;;;;5051323;28;20204;-77
2023/03/13 11:04:00;;;;;;;1.55;0.85;;;;;21.60;99264.00;;;;5043067;28;20234;-76
2023/03/13 11:06:30;;;;;;;2.53;0.75;;;;;21.60;99267.00;;;;5045253;28;20207;-77
2023/03/13 11:09:12;;;;;;;3.72;0.77;;;;;21.60;99288.00;;;;5050394;28;20204;-76
2023/03/13 11:11:45;;;;;;;3.80;1.17;;;;;21.70;99250.00;;;;5051064;28;20355;-76
2023/03/13 11:14:19;;;;;;;2.58;0.93;;;;;21.70;99261.00;;;;5048524;28;20199;-77
2023/03/13 11:16:50;;;;;;;2.22;0.38;;;;;21.80;99260.00;;;;5044470;28;20283;-76
2023/03/13 11:19:29;;;;;;;4.53;1.27;;;;;21.90;99230.00;;;;5048648;28;20203;-75
2023/03/13 11:22:07;;;;;;;4.00;1.17;;;;;22.00;99245.00;;;;5048390;28;20211;-77
2023/03/13 11:24:44;;;;;;;3.08;0.90;;;;;22.00;99261.00;;;;5043621;28;20220;-76
2023/03/13 11:27:20;;;;;;;3.55;1.33;;;;;22.00;99249.00;;;;5031223;28;20203;-77
2023/03/13 11:30:01;;;;;;;1.92;0.63;;;;;22.10;99225.00;;;;5045042;28;20568;-77
2023/03/13 11:32:37;;;;;;;1.52;0.77;;;;;22.20;99227.00;;;;5047807;28;20196;-76
2023/03/13 11:35:14;;;;;;;2.25;0.60;;;;;22.20;99247.00;;;;5050170;28;20712;-76
2023/03/13 11:37:45;;;;;;;3.65;0.77;;;;;22.30;99251.00;;;;5051118;28;20199;-77
2023/03/13 11:40:21;;;;;;;2.78;0.50;;;;;22.20;99235.00;;;;5048286;28;20290;-77
2023/03/13 11:43:06;;;;;;;2.55;1.02;;;;;22.20;99242.00;;;;5049423;28;20206;-78
2023/03/13 11:45:55;;;;;;;3.05;0.98;;;;;22.10;99237.00;;;;5049358;28;20253;-76
2023/03/13 11:48:42;;;;;;;1.73;1.08;;;;;22.20;99233.00;;;;5050613;28;20196;-77
2023/03/13 11:51:19;;;;;;;1.27;0.82;;;;;22.30;99229.00;;;;5045245;28;20200;-77
2023/03/13 11:54:04;;;;;;;1.27;0.63;;;;;22.30;99233.00;;;;5046936;28;20195;-77
2023/03/13 11:56:37;;;;;;;2.80;0.77;;;;;22.40;99218.00;;;;5049033;28;20215;-78
2023/03/13 11:59:22;;;;;;;3.17;0.98;;;;;22.40;99218.00;;;;5046690;28;20199;-77
2023/03/13 12:01:53;;;;;;;5.03;1.17;;;;;22.50;99217.00;;;;5040418;28;20208;-76
2023/03/13 12:04:27;;;;;;;3.30;0.85;;;;;22.60;99226.00;;;;5047552;28;20228;-77
2023/03/13 12:07:00;;;;;;;1.80;0.80;;;;;22.60;99217.00;;;;5049166;28;20220;-76
2023/03/13 12:09:32;;;;;;;2.45;0.95;;;;;22.60;99207.00;;;;5031373;28;20199;-77
2023/03/13 12:12:03;;;;;;;1.33;0.73;;;;;22.60;99210.00;;;;5032830;28;20230;-77
2023/03/13 12:14:35;;;;;;;4.38;1.10;;;;;22.60;99219.00;;;;5048375;28;20245;-76
2023/03/13 12:17:05;;;;;;;4.88;1.60;;;;;22.60;99224.00;;;;5042817;28;20207;-76
2023/03/13 12:19:37;;;;;;;5.78;1.42;;;;;22.60;99193.00;;;;5040431;28;20196;-77
2023/03/13 12:22:15;;;;;;;3.58;1.10;;;;;22.60;99158.00;;;;5049082;28;20196;-77
2023/03/13 12:24:51;;;;;;;6.13;1.15;;;;;22.60;99208.00;;;;5045054;28;20219;-77
2023/03/13 12:27:24;;;;;;;3.28;0.70;;;;;22.60;99212.00;;;;5047396;28;20195;-76
2023/03/13 12:29:58;;;;;;;2.47;1.08;;;;;22.60;99210.00;;;;5047882;28;20677;-77